Time;durP1;ratioP1;P1;durP2;ratioP2;P2;SDS_P1;SDS_P2;PMS_P1;PMS_P2;Temp;Humidity;BMP_temperature;BMP_pressure;BME280_temperature;BME280_humidity;BME280_pressure;Samples;Min_cycle;Max_cycle;Signal;HPM_P1;HPM_P2
2022/11/20 00:01:11;;;;;;;;;;;-0.40;99.90;;;;;;5103820;28;19965;-39
2022/11/20 00:03:37;;;;;;;;;;;-0.30;99.90;;;;;;5110110;28;19977;-38
2022/11/20 00:06:03;;;;;;;;;;;-0.30;99.90;;;;;;5106133;28;19925;-36
2022/11/20 00:08:29;;;;;;;;;;;-0.30;99.90;;;;;;5106244;28;20352;-39
2022/11/20 00:10:54;;;;;;;;;;;-0.30;99.90;;;;;;5102209;28;19969;-34
2022/11/20 00:13:20;;;;;;;;;;;-0.30;99.90;;;;;;5114325;28;19912;-35
2022/11/20 00:15:45;;;;;;;;;;;-0.30;99.90;;;;;;5109671;28;19967;-36
2022/11/20 00:18:11;;;;;;;;;;;-0.30;99.90;;;;;;5093308;28;20482;-34
2022/11/20 00:20:36;;;;;;;;;;;-0.30;99.90;;;;;;5097077;28;19904;-37
2022/11/20 00:23:02;;;;;;;;;;;-0.30;99.90;;;;;;5100487;28;20364;-35
2022/11/20 00:25:27;;;;;;;;;;;-0.40;99.90;;;;;;5101229;28;19984;-36
2022/11/20 00:27:53;;;;;;;;;;;-0.40;99.90;;;;;;5115159;28;20482;-37
2022/11/20 00:30:18;;;;;;;;;;;-0.40;99.90;;;;;;5107615;28;19904;-35
2022/11/20 00:32:44;;;;;;;;;;;-0.40;99.90;;;;;;5104405;28;19914;-39
2022/11/20 00:35:09;;;;;;;;;;;-0.30;99.90;;;;;;5099106;28;19992;-36
2022/11/20 00:37:35;;;;;;;;;;;-0.30;99.90;;;;;;5107187;28;19904;-40
2022/11/20 00:40:00;;;;;;;;;;;-0.40;99.90;;;;;;5097580;28;19912;-36
2022/11/20 00:42:26;;;;;;;;;;;-0.30;99.90;;;;;;5097887;28;19907;-38
2022/11/20 00:44:51;;;;;;;;;;;-0.40;99.90;;;;;;5097709;28;19919;-50
2022/11/20 00:47:17;;;;;;;;;;;-0.40;99.90;;;;;;5106942;28;19904;-33
2022/11/20 00:49:42;;;;;;;;;;;-0.40;99.90;;;;;;5094532;28;20302;-33
2022/11/20 00:52:08;;;;;;;;;;;-0.40;99.90;;;;;;5094526;28;20424;-39
2022/11/20 00:54:33;;;;;;;;;;;-0.50;99.90;;;;;;5112259;28;19903;-42
2022/11/20 00:56:59;;;;;;;;;;;-0.60;99.90;;;;;;5110865;28;19908;-39
2022/11/20 00:59:24;;;;;;;;;;;-0.60;99.90;;;;;;5102241;28;20414;-32
2022/11/20 01:01:50;;;;;;;;;;;-0.60;99.90;;;;;;5103065;28;19915;-35
2022/11/20 01:04:15;;;;;;;;;;;-0.50;99.90;;;;;;5098027;28;19935;-37
2022/11/20 01:06:41;;;;;;;;;;;-0.50;99.90;;;;;;5097668;28;19923;-33
2022/11/20 01:09:09;;;;;;;;;;;-0.60;99.90;;;;;;5096399;28;19908;-35
2022/11/20 01:11:35;;;;;;;;;;;-0.60;99.90;;;;;;5101382;28;19911;-38
2022/11/20 01:14:02;;;;;;;;;;;-0.50;99.90;;;;;;5109250;28;19908;-32
2022/11/20 01:16:32;;;;;;;;;;;-0.50;99.90;;;;;;5099593;27;19923;-35
2022/11/20 01:18:59;;;;;;;;;;;-0.50;99.90;;;;;;5102035;28;19908;-33
2022/11/20 01:21:26;;;;;;;;;;;-0.70;99.90;;;;;;5114339;28;20302;-34
2022/11/20 01:23:52;;;;;;;;;;;-0.70;99.90;;;;;;5103550;28;19973;-33
2022/11/20 01:26:19;;;;;;;;;;;-0.70;99.90;;;;;;5105439;28;20322;-35
2022/11/20 01:28:45;;;;;;;;;;;-0.70;99.90;;;;;;5102402;28;19915;-35
2022/11/20 01:31:14;;;;;;;;;;;-0.70;99.90;;;;;;5113028;28;19991;-55
2022/11/20 01:33:40;;;;;;;;;;;-0.60;99.90;;;;;;5109674;28;19911;-34
2022/11/20 01:36:06;;;;;;;;;;;-0.60;99.90;;;;;;5113963;28;19908;-33
2022/11/20 01:38:32;;;;;;;;;;;-0.60;99.90;;;;;;5107911;28;19907;-36
2022/11/20 01:40:57;;;;;;;;;;;-0.60;99.90;;;;;;5108444;28;19908;-39
2022/11/20 01:43:23;;;;;;;;;;;-0.70;99.90;;;;;;5112639;28;20249;-32
2022/11/20 01:45:55;;;;;;;;;;;-0.70;99.90;;;;;;5113291;28;19954;-33
2022/11/20 01:48:22;;;;;;;;;;;-0.70;99.90;;;;;;5113526;28;19904;-38
2022/11/20 01:50:48;;;;;;;;;;;-0.70;99.90;;;;;;5094156;28;20356;-39
2022/11/20 01:53:14;;;;;;;;;;;-0.80;99.90;;;;;;5093382;28;19912;-41
2022/11/20 01:55:43;;;;;;;;;;;-0.70;99.90;;;;;;5093765;28;20387;-42
2022/11/20 01:58:09;;;;;;;;;;;-0.80;99.90;;;;;;5108163;28;19908;-40
2022/11/20 02:00:34;;;;;;;;;;;-0.80;99.90;;;;;;5112463;28;19953;-33
2022/11/20 02:03:02;;;;;;;;;;;-0.80;99.90;;;;;;5103340;28;20372;-35
2022/11/20 02:05:33;;;;;;;;;;;-0.80;99.90;;;;;;5093170;28;20274;-34
2022/11/20 02:07:59;;;;;;;;;;;-0.80;99.90;;;;;;5107690;28;19907;-40
2022/11/20 02:10:25;;;;;;;;;;;-0.70;99.90;;;;;;5107658;28;19908;-37
2022/11/20 02:15:35;;;;;;;;;;;-0.80;99.90;;;;;;5097587;28;19915;-35
2022/11/20 02:18:00;;;;;;;;;;;-0.80;99.90;;;;;;5103383;28;20287;-38
2022/11/20 02:20:26;;;;;;;;;;;-0.80;99.90;;;;;;5097283;28;20356;-36
2022/11/20 02:23:01;;;;;;;;;;;-0.80;99.90;;;;;;5097252;28;20352;-34
2022/11/20 02:25:27;;;;;;;;;;;-0.90;99.90;;;;;;5097295;28;19915;-36
2022/11/20 02:27:52;;;;;;;;;;;-0.90;99.90;;;;;;5096658;28;20054;-35
2022/11/20 02:30:18;;;;;;;;;;;-0.90;99.90;;;;;;5095375;28;20368;-39
2022/11/20 02:32:44;;;;;;;;;;;-1.00;99.90;;;;;;5098011;28;19912;-38
2022/11/20 02:35:29;;;;;;;;;;;-0.90;99.90;;;;;;5095145;28;20284;-32
2022/11/20 02:37:56;;;;;;;;;;;-0.90;99.90;;;;;;5103730;28;19926;-35
2022/11/20 02:40:21;;;;;;;;;;;-1.00;99.90;;;;;;5107193;28;19912;-34
2022/11/20 02:42:47;;;;;;;;;;;-1.00;99.90;;;;;;5095983;28;19915;-33
2022/11/20 02:45:13;;;;;;;;;;;-1.00;99.90;;;;;;5095551;28;20276;-39
2022/11/20 02:47:38;;;;;;;;;;;-1.00;99.90;;;;;;5096717;28;19961;-38
2022/11/20 02:50:06;;;;;;;;;;;-0.90;99.90;;;;;;5096639;28;19919;-42
2022/11/20 02:52:31;;;;;;;;;;;-0.90;99.90;;;;;;5096578;28;20007;-39
2022/11/20 02:54:57;;;;;;;;;;;-1.00;99.90;;;;;;5097668;28;20336;-41
2022/11/20 02:57:22;;;;;;;;;;;-1.00;99.90;;;;;;5095839;28;20376;-42
2022/11/20 02:59:48;;;;;;;;;;;-1.00;99.90;;;;;;5096712;28;19950;-40
2022/11/20 03:02:13;;;;;;;;;;;-1.00;99.90;;;;;;5094262;28;19920;-41
2022/11/20 03:04:39;;;;;;;;;;;-1.00;99.90;;;;;;5097384;28;19904;-50
2022/11/20 03:07:04;;;;;;;;;;;-1.00;99.90;;;;;;5096466;28;19904;-34
2022/11/20 03:09:30;;;;;;;;;;;-1.00;99.90;;;;;;5095462;28;19965;-35
2022/11/20 03:11:55;;;;;;;;;;;-1.10;99.90;;;;;;5096188;28;19957;-34
2022/11/20 03:14:21;;;;;;;;;;;-1.10;99.90;;;;;;5096534;28;20279;-40
2022/11/20 03:16:47;;;;;;;;;;;-1.10;99.90;;;;;;5101208;28;19919;-40
2022/11/20 03:19:13;;;;;;;;;;;-1.20;99.90;;;;;;5096492;28;19904;-49
2022/11/20 03:21:39;;;;;;;;;;;-1.10;99.90;;;;;;5094706;28;19904;-42
2022/11/20 03:24:04;;;;;;;;;;;-1.10;99.90;;;;;;5095801;28;19904;-39
2022/11/20 03:26:30;;;;;;;;;;;-1.10;99.90;;;;;;5095366;28;19915;-41
2022/11/20 03:28:57;;;;;;;;;;;-1.10;99.90;;;;;;5096188;28;19919;-44
2022/11/20 03:31:24;;;;;;;;;;;-1.00;99.90;;;;;;5096810;28;20378;-40
2022/11/20 03:33:50;;;;;;;;;;;-1.00;99.90;;;;;;5095812;28;20371;-42
2022/11/20 03:36:16;;;;;;;;;;;-0.90;99.90;;;;;;5111439;28;19960;-49
2022/11/20 03:38:42;;;;;;;;;;;-0.90;99.90;;;;;;5116182;28;20387;-39
2022/11/20 03:41:11;;;;;;;;;;;-0.80;99.90;;;;;;5100799;28;19908;-37
2022/11/20 03:43:37;;;;;;;;;;;-0.80;99.90;;;;;;5095846;28;20014;-36
2022/11/20 03:46:03;;;;;;;;;;;-0.90;99.90;;;;;;5102462;28;20277;-39
2022/11/20 03:48:29;;;;;;;;;;;-0.90;99.90;;;;;;5095589;28;19911;-35
2022/11/20 03:51:14;;;;;;;;;;;-0.90;99.90;;;;;;5094241;28;19904;-36
2022/11/20 03:53:40;;;;;;;;;;;-1.00;99.90;;;;;;5095709;28;20356;-36
2022/11/20 03:56:06;;;;;;;;;;;-1.00;99.90;;;;;;5098233;28;19966;-35
2022/11/20 03:58:32;;;;;;;;;;;-1.00;99.90;;;;;;5094919;28;19907;-37
2022/11/20 04:00:58;;;;;;;;;;;-1.00;99.90;;;;;;5095584;28;20045;-34
2022/11/20 04:03:23;;;;;;;;;;;-1.10;99.90;;;;;;5095594;28;19915;-37
2022/11/20 04:05:49;;;;;;;;;;;-1.10;99.90;;;;;;5102827;28;19908;-39
2022/11/20 04:08:14;;;;;;;;;;;-1.10;99.90;;;;;;5115607;28;19904;-37
2022/11/20 04:10:39;;;;;;;;;;;-1.10;99.90;;;;;;5096889;28;19907;-32
2022/11/20 04:13:05;;;;;;;;;;;-1.10;99.90;;;;;;5094973;28;19908;-33
2022/11/20 04:15:30;;;;;;;;;;;-1.10;99.90;;;;;;5094538;28;20284;-34
2022/11/20 04:17:56;;;;;;;;;;;-1.20;99.90;;;;;;5094929;28;19904;-37
2022/11/20 04:20:21;;;;;;;;;;;-1.20;99.90;;;;;;5094910;28;19904;-41
2022/11/20 04:22:47;;;;;;;;;;;-1.20;99.90;;;;;;5094943;28;20318;-42
2022/11/20 04:25:12;;;;;;;;;;;-1.20;99.90;;;;;;5099892;28;19908;-42
2022/11/20 04:27:38;;;;;;;;;;;-1.20;99.90;;;;;;5109422;28;19915;-43
2022/11/20 04:30:04;;;;;;;;;;;-1.20;99.90;;;;;;5111403;28;20382;-41
2022/11/20 04:32:29;;;;;;;;;;;-1.20;99.90;;;;;;5115046;28;19908;-41
2022/11/20 04:34:54;;;;;;;;;;;-1.20;99.90;;;;;;5104073;28;20360;-40
2022/11/20 04:37:20;;;;;;;;;;;-1.30;99.90;;;;;;5094648;28;19904;-32
2022/11/20 04:39:45;;;;;;;;;;;-1.30;99.90;;;;;;5094315;28;19908;-36
2022/11/20 04:42:29;;;;;;;;;;;-1.30;99.90;;;;;;5111806;28;19963;-40
2022/11/20 04:44:55;;;;;;;;;;;-1.30;99.90;;;;;;5104954;28;20359;-41
2022/11/20 04:47:20;;;;;;;;;;;-1.30;99.90;;;;;;5114803;28;19994;-35
2022/11/20 04:49:46;;;;;;;;;;;-1.40;99.90;;;;;;5114780;28;19907;-40
2022/11/20 04:52:11;;;;;;;;;;;-1.40;99.90;;;;;;5114677;28;19918;-40
2022/11/20 04:54:37;;;;;;;;;;;-1.30;99.90;;;;;;5105304;28;19915;-51
2022/11/20 04:57:02;;;;;;;;;;;-1.30;99.90;;;;;;5094313;28;20356;-35
2022/11/20 04:59:28;;;;;;;;;;;-1.30;99.90;;;;;;5093901;28;19955;-35
2022/11/20 05:01:53;;;;;;;;;;;-1.30;99.90;;;;;;5094015;28;20379;-35
2022/11/20 05:04:19;;;;;;;;;;;-1.30;99.90;;;;;;5098392;28;19908;-34
2022/11/20 05:06:45;;;;;;;;;;;-1.30;99.90;;;;;;5113390;28;20241;-42
2022/11/20 05:09:11;;;;;;;;;;;-1.20;99.90;;;;;;5109829;28;19916;-35
2022/11/20 05:11:36;;;;;;;;;;;-1.20;99.90;;;;;;5093996;28;20375;-38
2022/11/20 05:14:02;;;;;;;;;;;-1.20;99.90;;;;;;5108430;28;19908;-38
2022/11/20 05:16:27;;;;;;;;;;;-1.20;99.90;;;;;;5114291;28;19904;-33
2022/11/20 05:18:54;;;;;;;;;;;-1.20;99.90;;;;;;5114231;28;19911;-37
2022/11/20 05:21:19;;;;;;;;;;;-1.20;99.90;;;;;;5114432;28;19949;-39
2022/11/20 05:23:45;;;;;;;;;;;-1.20;99.90;;;;;;5098542;28;20049;-41
2022/11/20 05:26:18;;;;;;;;;;;-1.20;99.90;;;;;;5094339;28;19912;-42
2022/11/20 05:28:44;;;;;;;;;;;-1.20;99.90;;;;;;5093740;28;20281;-40
2022/11/20 05:31:20;;;;;;;;;;;-1.20;99.90;;;;;;5093475;28;19912;-40
2022/11/20 05:33:46;;;;;;;;;;;-1.20;99.90;;;;;;5093423;28;20310;-40
2022/11/20 05:36:12;;;;;;;;;;;-1.20;99.90;;;;;;5093956;28;19908;-41
2022/11/20 05:38:37;;;;;;;;;;;-1.20;99.90;;;;;;5093555;28;19904;-39
2022/11/20 05:41:04;;;;;;;;;;;-1.20;99.90;;;;;;5095665;28;19915;-40
2022/11/20 05:43:31;;;;;;;;;;;-1.20;99.90;;;;;;5095473;28;19908;-39
2022/11/20 05:45:56;;;;;;;;;;;-1.30;99.90;;;;;;5104335;28;19910;-40
2022/11/20 05:48:22;;;;;;;;;;;-1.30;99.90;;;;;;5113427;28;19999;-43
2022/11/20 05:50:48;;;;;;;;;;;-1.30;99.90;;;;;;5099534;28;19968;-39
2022/11/20 05:53:13;;;;;;;;;;;-1.30;99.90;;;;;;5114162;28;20367;-41
2022/11/20 05:55:39;;;;;;;;;;;-1.30;99.90;;;;;;5110068;28;19915;-42
2022/11/20 05:58:04;;;;;;;;;;;-1.30;99.90;;;;;;5111773;28;20376;-33
2022/11/20 06:00:29;;;;;;;;;;;-1.30;99.90;;;;;;5112761;28;19911;-33
2022/11/20 06:02:55;;;;;;;;;;;-1.30;99.90;;;;;;5113457;28;20291;-32
2022/11/20 06:05:20;;;;;;;;;;;-1.30;99.90;;;;;;5108807;28;19955;-41
2022/11/20 06:07:46;;;;;;;;;;;-1.30;99.90;;;;;;5112406;28;19919;-33
2022/11/20 06:10:11;;;;;;;;;;;-1.30;99.90;;;;;;5091694;28;19914;-40
2022/11/20 06:12:37;;;;;;;;;;;-1.30;99.90;;;;;;5101901;28;20359;-40
2022/11/20 06:15:03;;;;;;;;;;;-1.20;99.90;;;;;;5108893;28;19949;-35
2022/11/20 06:17:29;;;;;;;;;;;-1.10;99.90;;;;;;5097918;28;20412;-35
2022/11/20 06:19:54;;;;;;;;;;;-1.10;99.90;;;;;;5109182;28;19951;-35
2022/11/20 06:22:20;;;;;;;;;;;-1.10;99.90;;;;;;5113511;28;19935;-34
2022/11/20 06:24:45;;;;;;;;;;;-1.10;99.90;;;;;;5107620;28;19915;-56
2022/11/20 06:27:10;;;;;;;;;;;-1.10;99.90;;;;;;5093247;28;19915;-33
2022/11/20 06:29:36;;;;;;;;;;;-1.10;99.90;;;;;;5093037;28;20417;-35
2022/11/20 06:32:01;;;;;;;;;;;-1.10;99.90;;;;;;5092982;28;19955;-32
2022/11/20 06:34:27;;;;;;;;;;;-1.10;99.90;;;;;;5093540;28;20730;-32
2022/11/20 06:36:52;;;;;;;;;;;-1.10;99.90;;;;;;5106437;28;19939;-33
2022/11/20 06:39:18;;;;;;;;;;;-1.10;99.90;;;;;;5113286;28;19904;-32
2022/11/20 06:41:46;;;;;;;;;;;-1.10;99.90;;;;;;5093016;28;19953;-36
2022/11/20 06:44:12;;;;;;;;;;;-1.10;99.90;;;;;;5094551;28;20003;-32
2022/11/20 06:46:37;;;;;;;;;;;-1.10;99.90;;;;;;5092715;28;20340;-42
2022/11/20 06:49:03;;;;;;;;;;;-1.00;99.90;;;;;;5092508;28;19953;-33
2022/11/20 06:51:28;;;;;;;;;;;-1.00;99.90;;;;;;5092800;28;20361;-35
2022/11/20 06:53:54;;;;;;;;;;;-0.90;99.90;;;;;;5092799;28;19904;-36
2022/11/20 06:56:19;;;;;;;;;;;-0.80;99.90;;;;;;5092364;28;20364;-32
2022/11/20 06:58:45;;;;;;;;;;;-0.80;99.90;;;;;;5092687;28;20356;-33
2022/11/20 07:01:12;;;;;;;;;;;-0.70;99.90;;;;;;5095294;28;19915;-35
2022/11/20 07:03:37;;;;;;;;;;;-0.70;99.90;;;;;;5096373;28;19908;-35
2022/11/20 07:06:03;;;;;;;;;;;-0.80;99.90;;;;;;5111648;28;20268;-56
2022/11/20 07:08:29;;;;;;;;;;;-0.80;99.90;;;;;;5116773;28;19913;-35
2022/11/20 07:10:59;;;;;;;;;;;-0.90;99.90;;;;;;5105427;28;19978;-37
2022/11/20 07:13:25;;;;;;;;;;;-0.90;99.90;;;;;;5095421;28;19912;-40
2022/11/20 07:15:50;;;;;;;;;;;-0.90;99.90;;;;;;5099017;28;19953;-37
2022/11/20 07:18:16;;;;;;;;;;;-0.90;99.90;;;;;;5103968;28;20375;-35
2022/11/20 07:20:41;;;;;;;;;;;-0.90;99.90;;;;;;5096118;28;20303;-35
2022/11/20 07:23:07;;;;;;;;;;;-0.90;99.90;;;;;;5109668;28;19904;-38
2022/11/20 07:25:32;;;;;;;;;;;-0.80;99.90;;;;;;5107921;28;19908;-38
2022/11/20 07:27:58;;;;;;;;;;;-0.80;99.90;;;;;;5096084;28;19954;-36
2022/11/20 07:30:24;;;;;;;;;;;-0.70;99.90;;;;;;5116623;28;19994;-34
2022/11/20 07:32:53;;;;;;;;;;;-0.70;99.90;;;;;;5116202;28;20443;-40
2022/11/20 07:35:19;;;;;;;;;;;-0.70;99.90;;;;;;5112092;28;20423;-37
2022/11/20 07:37:45;;;;;;;;;;;-0.60;99.90;;;;;;5095872;28;19991;-39
2022/11/20 07:40:11;;;;;;;;;;;-0.50;99.90;;;;;;5094506;28;20023;-39
2022/11/20 07:42:37;;;;;;;;;;;-0.40;99.90;;;;;;5096331;28;20379;-33
2022/11/20 07:45:03;;;;;;;;;;;-0.40;99.90;;;;;;5111214;28;19915;-33
2022/11/20 07:47:28;;;;;;;;;;;-0.40;99.90;;;;;;5116005;28;20355;-32
2022/11/20 07:49:53;;;;;;;;;;;-0.40;99.90;;;;;;5113022;28;20000;-36
2022/11/20 07:52:19;;;;;;;;;;;-0.40;99.90;;;;;;5095388;27;19919;-34
2022/11/20 07:54:44;;;;;;;;;;;-0.30;99.90;;;;;;5095533;28;19949;-40
2022/11/20 07:57:10;;;;;;;;;;;-0.20;99.90;;;;;;5098686;28;19912;-38
2022/11/20 07:59:35;;;;;;;;;;;-0.10;99.90;;;;;;5114153;28;20002;-33
2022/11/20 08:02:01;;;;;;;;;;;0.00;99.90;;;;;;5115514;28;19960;-32
2022/11/20 08:04:26;;;;;;;;;;;0.10;99.90;;;;;;5097298;28;20360;-33
2022/11/20 08:06:53;;;;;;;;;;;0.20;99.90;;;;;;5094920;28;19908;-31
2022/11/20 08:09:18;;;;;;;;;;;0.20;99.90;;;;;;5109201;28;19955;-35
2022/11/20 08:14:28;;;;;;;;;;;0.20;99.90;;;;;;5115523;28;20356;-34
2022/11/20 08:16:53;;;;;;;;;;;0.30;99.90;;;;;;5097444;28;19943;-34
2022/11/20 08:19:20;;;;;;;;;;;0.30;99.90;;;;;;5094839;28;19915;-36
2022/11/20 08:21:45;;;;;;;;;;;0.20;99.90;;;;;;5093140;28;19950;-34
2022/11/20 08:24:11;;;;;;;;;;;0.10;99.90;;;;;;5111025;28;19959;-32
2022/11/20 08:26:37;;;;;;;;;;;0.20;99.90;;;;;;5107176;28;19908;-38
2022/11/20 08:29:03;;;;;;;;;;;0.20;99.90;;;;;;5102437;28;19962;-35
2022/11/20 08:31:29;;;;;;;;;;;0.20;99.90;;;;;;5103073;28;19956;-34
2022/11/20 08:33:55;;;;;;;;;;;0.20;99.90;;;;;;5104800;28;20356;-35
2022/11/20 08:36:21;;;;;;;;;;;0.30;99.90;;;;;;5094821;28;19912;-36
2022/11/20 08:38:48;;;;;;;;;;;0.40;99.90;;;;;;5094966;28;20291;-37
2022/11/20 08:41:26;;;;;;;;;;;0.60;99.90;;;;;;5103656;28;19908;-32
2022/11/20 08:43:59;;;;;;;;;;;0.70;99.90;;;;;;5114261;28;19912;-50
2022/11/20 08:46:25;;;;;;;;;;;0.60;99.90;;;;;;5112535;28;19908;-56
2022/11/20 08:48:51;;;;;;;;;;;0.60;99.90;;;;;;5101738;28;19904;-33
2022/11/20 08:51:16;;;;;;;;;;;0.60;99.90;;;;;;5107257;28;19954;-34
2022/11/20 08:53:42;;;;;;;;;;;0.70;99.90;;;;;;5095445;28;20054;-39
2022/11/20 08:56:09;;;;;;;;;;;0.70;99.90;;;;;;5101030;28;21045;-33
2022/11/20 08:58:35;;;;;;;;;;;0.70;99.90;;;;;;5106691;28;19973;-34
2022/11/20 09:01:00;;;;;;;;;;;0.70;99.90;;;;;;5094093;28;19908;-34
2022/11/20 09:03:27;;;;;;;;;;;0.80;99.90;;;;;;5107846;28;19951;-34
2022/11/20 09:06:00;;;;;;;;;;;0.90;99.90;;;;;;5101926;28;19962;-35
2022/11/20 09:08:26;;;;;;;;;;;0.90;99.90;;;;;;5109217;28;19907;-35
2022/11/20 09:12:24;;;;;;;15.65;7.03;;;1.10;99.90;;;;;;5025215;27;1987838;-33
2022/11/20 09:14:50;;;;;;;19.73;8.23;;;1.10;99.90;;;;;;5090498;28;20028;-33
2022/11/20 09:17:16;;;;;;;15.15;7.57;;;1.30;99.90;;;;;;5072030;28;20446;-51
2022/11/20 09:19:41;;;;;;;18.15;7.70;;;1.40;99.90;;;;;;5090179;28;20028;-34
2022/11/20 09:22:07;;;;;;;20.70;8.82;;;1.30;99.90;;;;;;5089265;28;20029;-32
2022/11/20 09:24:33;;;;;;;15.13;7.53;;;1.30;99.90;;;;;;5088885;28;20096;-35
2022/11/20 09:27:01;;;;;;;19.88;8.63;;;1.30;99.90;;;;;;5088302;28;20020;-36
2022/11/20 09:29:27;;;;;;;16.30;7.15;;;1.40;99.90;;;;;;5088941;28;20548;-31
2022/11/20 09:31:53;;;;;;;15.63;8.27;;;1.40;99.90;;;;;;5079413;28;20150;-32
2022/11/20 09:34:18;;;;;;;18.50;9.40;;;1.50;99.90;;;;;;5084396;28;20087;-32
2022/11/20 09:36:44;;;;;;;15.90;8.07;;;1.50;99.90;;;;;;5069531;28;20478;-34
2022/11/20 09:39:10;;;;;;;16.63;7.40;;;1.50;99.90;;;;;;5070193;28;20025;-38
2022/11/20 09:41:56;;;;;;;20.63;8.27;;;1.60;99.90;;;;;;5066760;28;20400;-33
2022/11/20 09:44:54;;;;;;;16.90;7.70;;;1.70;99.90;;;;;;5062853;28;20489;-38
2022/11/20 09:47:38;;;;;;;20.58;8.38;;;1.80;99.90;;;;;;5066676;28;20427;-37
2022/11/20 09:50:34;;;;;;;16.25;7.63;;;1.80;99.90;;;;;;5069672;28;20490;-36
2022/11/20 09:53:18;;;;;;;15.25;7.95;;;1.80;99.90;;;;;;5063273;28;20025;-36
2022/11/20 09:55:45;;;;;;;19.00;8.35;;;1.90;99.90;;;;;;5049270;28;20499;-34
2022/11/20 09:58:24;;;;;;;19.17;8.05;;;1.90;99.90;;;;;;5060417;28;20021;-35
2022/11/20 10:00:51;;;;;;;16.13;7.85;;;2.00;99.90;;;;;;5060606;28;20668;-37
2022/11/20 10:03:25;;;;;;;19.05;9.35;;;2.00;99.90;;;;;;5068022;28;20108;-34
2022/11/20 10:05:54;;;;;;;20.30;8.02;;;2.10;99.90;;;;;;5068763;28;20035;-36
2022/11/20 10:08:24;;;;;;;19.88;8.60;;;2.10;99.90;;;;;;5068467;28;20029;-35
2022/11/20 10:10:56;;;;;;;21.88;8.30;;;2.10;99.90;;;;;;5067418;28;20124;-33
2022/11/20 10:13:57;;;;;;;22.05;9.07;;;2.10;99.90;;;;;;5067353;28;20032;-34
2022/11/20 10:16:34;;;;;;;20.90;8.85;;;2.00;99.90;;;;;;5065070;28;20443;-37
2022/11/20 10:19:28;;;;;;;21.60;8.93;;;2.00;99.90;;;;;;5063492;28;20502;-38
2022/11/20 10:22:13;;;;;;;17.98;8.20;;;2.00;99.90;;;;;;5055461;28;20396;-38
2022/11/20 10:24:52;;;;;;;19.73;8.52;;;2.10;99.90;;;;;;5044831;28;20392;-39
2022/11/20 10:27:26;;;;;;;18.90;9.18;;;2.20;99.90;;;;;;5047900;28;20067;-36
2022/11/20 10:30:07;;;;;;;17.65;8.52;;;2.30;99.90;;;;;;5045937;28;20582;-36
2022/11/20 10:32:49;;;;;;;14.25;7.55;;;2.30;99.90;;;;;;5046644;28;20444;-41
2022/11/20 10:35:34;;;;;;;22.88;9.88;;;2.20;99.90;;;;;;5046056;28;20506;-34
2022/11/20 10:38:05;;;;;;;19.20;9.57;;;2.30;99.90;;;;;;5050294;28;20109;-38
2022/11/20 10:40:48;;;;;;;25.20;9.85;;;2.40;99.90;;;;;;5050385;28;20761;-34
2022/11/20 10:43:33;;;;;;;22.25;9.93;;;2.40;99.90;;;;;;5044729;28;20099;-36
2022/11/20 10:46:32;;;;;;;23.75;10.07;;;2.60;99.90;;;;;;5051493;28;20103;-36
2022/11/20 10:48:58;;;;;;;19.02;8.55;;;2.80;99.90;;;;;;5036850;28;20116;-37
2022/11/20 10:51:42;;;;;;;19.17;9.57;;;2.80;99.90;;;;;;5053698;28;20183;-37
2022/11/20 10:54:20;;;;;;;18.98;9.65;;;2.90;99.90;;;;;;5054976;28;20037;-38
2022/11/20 10:56:51;;;;;;;23.00;10.05;;;2.80;99.90;;;;;;5054328;28;20029;-36
2022/11/20 10:59:49;;;;;;;20.63;9.23;;;2.80;99.90;;;;;;5053008;28;20029;-37
2022/11/20 11:02:16;;;;;;;18.48;9.15;;;2.80;99.90;;;;;;5050678;28;20020;-33
2022/11/20 11:04:48;;;;;;;23.67;9.85;;;2.80;99.90;;;;;;5054621;28;20025;-36
2022/11/20 11:07:34;;;;;;;21.98;9.90;;;2.80;99.90;;;;;;5054633;28;20535;-32
2022/11/20 11:10:00;;;;;;;21.65;10.52;;;3.00;99.90;;;;;;5053374;28;20477;-37
2022/11/20 11:12:28;;;;;;;20.42;9.73;;;3.00;99.90;;;;;;5051473;28;20051;-41
2022/11/20 11:14:57;;;;;;;24.83;10.05;;;3.00;99.90;;;;;;5051246;28;20032;-36
2022/11/20 11:17:23;;;;;;;20.42;9.68;;;3.00;99.90;;;;;;5051047;28;20075;-35
2022/11/20 11:20:04;;;;;;;24.08;10.73;;;3.00;99.90;;;;;;5049828;28;20440;-36
2022/11/20 11:22:34;;;;;;;21.73;10.13;;;3.10;99.90;;;;;;5052158;28;20035;-33
2022/11/20 11:25:00;;;;;;;23.65;10.52;;;3.10;99.90;;;;;;5052077;28;20528;-33
2022/11/20 11:27:26;;;;;;;28.88;11.77;;;3.20;99.90;;;;;;5047828;28;20070;-37
2022/11/20 11:30:20;;;;;;;20.98;9.35;;;3.30;99.90;;;;;;5051181;28;20013;-36
2022/11/20 11:32:46;;;;;;;21.85;10.45;;;3.30;99.90;;;;;;5051110;28;20032;-32
2022/11/20 11:35:24;;;;;;;30.30;11.48;;;3.30;99.90;;;;;;5052757;28;20025;-36
2022/11/20 11:37:51;;;;;;;20.05;10.38;;;3.20;99.90;;;;;;5044034;28;20358;-44
2022/11/20 11:40:19;;;;;;;24.42;11.23;;;3.20;99.90;;;;;;5029082;28;20431;-32
2022/11/20 11:42:53;;;;;;;27.02;11.98;;;3.10;99.90;;;;;;5043650;28;20032;-31
2022/11/20 11:45:19;;;;;;;21.80;11.07;;;3.00;99.90;;;;;;5045170;28;20029;-36
2022/11/20 11:47:51;;;;;;;29.48;12.50;;;2.90;99.90;;;;;;5050166;28;20470;-31
2022/11/20 11:50:28;;;;;;;24.25;10.93;;;2.80;99.90;;;;;;5050132;28;20029;-31
2022/11/20 11:53:14;;;;;;;28.92;11.98;;;2.80;99.90;;;;;;5051149;28;20420;-31
2022/11/20 11:56:03;;;;;;;26.60;11.18;;;2.80;99.90;;;;;;5048909;28;20527;-32
2022/11/20 11:58:51;;;;;;;27.42;11.63;;;2.90;99.90;;;;;;5049510;28;20044;-37
2022/11/20 12:01:47;;;;;;;23.90;11.25;;;2.90;99.90;;;;;;5050430;28;20125;-35
2022/11/20 12:04:27;;;;;;;28.90;12.30;;;3.00;99.90;;;;;;5045648;28;20029;-37
2022/11/20 12:07:08;;;;;;;31.52;12.80;;;3.00;99.90;;;;;;5049408;28;20485;-33
2022/11/20 12:09:43;;;;;;;33.78;14.00;;;3.10;99.90;;;;;;5050239;28;20025;-39
2022/11/20 12:12:15;;;;;;;31.58;12.88;;;3.30;99.90;;;;;;5050147;28;20049;-43
2022/11/20 12:14:44;;;;;;;37.17;12.75;;;3.30;99.90;;;;;;5032803;28;20013;-41
2022/11/20 12:17:12;;;;;;;31.65;12.30;;;3.30;99.90;;;;;;5050466;28;20025;-46
2022/11/20 12:19:41;;;;;;;31.02;12.52;;;3.20;99.90;;;;;;5052561;28;20029;-42
2022/11/20 12:22:19;;;;;;;34.85;13.57;;;3.10;99.90;;;;;;5050278;28;20036;-45
2022/11/20 12:24:59;;;;;;;34.80;12.63;;;3.10;99.90;;;;;;5033351;28;20541;-43
2022/11/20 12:27:47;;;;;;;37.30;13.02;;;3.00;99.90;;;;;;5049235;28;20032;-43
2022/11/20 12:30:15;;;;;;;30.30;12.23;;;3.00;99.90;;;;;;5052106;28;20036;-48
2022/11/20 12:33:02;;;;;;;32.30;13.73;;;3.00;99.90;;;;;;5051056;28;20523;-42
2022/11/20 12:36:02;;;;;;;27.70;11.40;;;3.00;99.90;;;;;;5051048;28;20029;-42
2022/11/20 12:38:30;;;;;;;31.30;12.38;;;3.00;99.90;;;;;;5052456;28;20064;-44
2022/11/20 12:41:11;;;;;;;30.30;12.73;;;3.10;99.90;;;;;;5050729;28;20127;-43
2022/11/20 12:46:51;;;;;;;36.00;14.07;;;3.10;99.90;;;;;;5049888;28;20044;-41
2022/11/20 12:49:32;;;;;;;36.60;12.98;;;3.10;99.90;;;;;;5051325;28;20035;-41
2022/11/20 12:52:35;;;;;;;35.47;14.73;;;3.20;99.90;;;;;;5051803;28;20113;-43
2022/11/20 12:55:10;;;;;;;43.17;13.65;;;3.10;99.90;;;;;;5050777;28;20421;-40
2022/11/20 12:57:52;;;;;;;35.15;13.18;;;3.20;99.90;;;;;;5034206;28;20063;-44
2022/11/20 13:00:20;;;;;;;34.67;13.55;;;3.20;99.90;;;;;;5046297;28;20030;-39
2022/11/20 13:03:14;;;;;;;36.78;14.68;;;3.20;99.90;;;;;;5046175;28;21391;-40
2022/11/20 13:06:01;;;;;;;38.95;14.73;;;3.20;99.90;;;;;;5039636;28;20036;-43
2022/11/20 13:08:34;;;;;;;35.40;13.57;;;3.20;99.90;;;;;;5049151;28;20222;-43
2022/11/20 13:11:17;;;;;;;32.75;13.73;;;3.20;99.90;;;;;;5052570;28;20041;-41
2022/11/20 13:13:48;;;;;;;39.70;14.43;;;3.20;99.90;;;;;;5052680;28;20469;-41
2022/11/20 13:16:19;;;;;;;44.25;12.45;;;3.20;99.90;;;;;;5052537;28;20021;-44
2022/11/20 13:18:45;;;;;;;32.72;14.15;;;3.20;99.90;;;;;;5052651;28;20025;-43
2022/11/20 13:21:34;;;;;;;32.58;14.15;;;3.20;99.90;;;;;;5052782;28;20430;-40
2022/11/20 13:24:18;;;;;;;36.78;13.85;;;3.30;99.90;;;;;;5034366;28;20029;-44
2022/11/20 13:26:44;;;;;;;35.78;13.60;;;3.30;99.90;;;;;;5052494;28;20498;-41
2022/11/20 13:29:16;;;;;;;35.92;14.90;;;3.30;99.90;;;;;;5052267;28;20025;-44
2022/11/20 13:31:45;;;;;;;28.65;12.65;;;3.30;99.90;;;;;;5052241;28;20060;-41
2022/11/20 13:34:23;;;;;;;40.92;14.30;;;3.30;99.90;;;;;;5052222;28;20020;-41
2022/11/20 13:36:54;;;;;;;36.05;13.93;;;3.30;99.90;;;;;;5052662;28;20017;-44
2022/11/20 13:39:36;;;;;;;38.20;14.10;;;3.20;99.90;;;;;;5052365;28;20017;-42
2022/11/20 13:45:00;;;;;;;42.05;14.05;;;3.20;99.90;;;;;;5052440;28;20043;-42
2022/11/20 13:47:27;;;;;;;40.08;14.13;;;3.10;99.90;;;;;;5052313;28;20517;-59
2022/11/20 13:49:59;;;;;;;38.55;14.35;;;3.10;99.90;;;;;;5052210;28;20037;-45
2022/11/20 13:52:55;;;;;;;32.70;14.35;;;3.10;99.90;;;;;;5052484;28;20539;-45
2022/11/20 13:55:30;;;;;;;40.80;14.23;;;3.20;99.90;;;;;;5052224;28;20017;-43
2022/11/20 13:58:15;;;;;;;39.75;14.93;;;3.20;99.90;;;;;;5054166;28;20474;-44
2022/11/20 14:01:17;;;;;;;37.10;14.70;;;3.20;99.90;;;;;;5055921;28;20112;-45
2022/11/20 14:03:43;;;;;;;36.03;14.38;;;3.20;99.90;;;;;;5055827;28;20025;-43
2022/11/20 14:06:20;;;;;;;43.70;15.80;;;3.10;99.90;;;;;;5055907;28;20027;-42
2022/11/20 14:08:47;;;;;;;35.25;14.40;;;3.20;99.90;;;;;;5055880;28;20040;-43